DGGSM EDDN-EDDN

Flight info

Callsign DGGSM
Flight time 0h 8m
Altitude
Route DCT
Aircraft DA42

Departure

Time 2026-05-07 20:14
Airport Nuremberg Airport (EDDN)

Arrival

Time 2026-05-07 20:22
Airport Nuremberg Airport (EDDN)
Time Latitude Longitude Altitude Speed Heading
2026-05-07 20:04 49.49514 11.07378 1020 ft 0 kts 186°
2026-05-07 20:11 49.49502 11.07375 1020 ft 7 kts 201°
2026-05-07 20:11 49.49490 11.07253 1021 ft 17 kts 278°
2026-05-07 20:11 49.49571 11.07204 1021 ft 16 kts
2026-05-07 20:11 49.49631 11.07304 1020 ft 18 kts 98°
2026-05-07 20:12 49.49610 11.07527 1019 ft 25 kts 98°
2026-05-07 20:12 49.49582 11.07809 1021 ft 29 kts 98°
2026-05-07 20:12 49.49550 11.08129 1022 ft 30 kts 99°
2026-05-07 20:12 49.49559 11.08346 1025 ft 15 kts 21°
2026-05-07 20:13 49.49630 11.08420 1028 ft 13 kts 53°
2026-05-07 20:13 49.49698 11.08549 1030 ft 17 kts 37°
2026-05-07 20:13 49.49797 11.08512 1031 ft 20 kts 292°
2026-05-07 20:13 49.49844 11.08093 1026 ft 67 kts 278°
2026-05-07 20:14 49.49935 11.07230 1131 ft 87 kts 277°
2026-05-07 20:14 49.50007 11.06288 1350 ft 92 kts 274°
2026-05-07 20:14 49.49875 11.05298 1537 ft 102 kts 237°
2026-05-07 20:14 49.49308 11.04606 1716 ft 109 kts 204°
2026-05-07 20:15 49.48571 11.04227 1912 ft 112 kts 197°
2026-05-07 20:15 49.47792 11.03928 2061 ft 119 kts 192°
2026-05-07 20:15 49.46953 11.03702 2102 ft 125 kts 188°
2026-05-07 20:15 49.46080 11.03546 2123 ft 130 kts 188°
2026-05-07 20:16 49.45193 11.03272 2203 ft 129 kts 195°
2026-05-07 20:16 49.44315 11.02915 2246 ft 133 kts 192°
2026-05-07 20:16 49.43388 11.02868 2298 ft 134 kts 165°
2026-05-07 20:16 49.42833 11.03925 2129 ft 146 kts 96°
2026-05-07 20:17 49.42665 11.05483 2081 ft 145 kts 100°
2026-05-07 20:17 49.42446 11.06976 2072 ft 142 kts 100°
2026-05-07 20:17 49.42279 11.08476 2044 ft 142 kts 96°
2026-05-07 20:17 49.42159 11.09972 2014 ft 141 kts 95°
2026-05-07 20:18 49.42126 11.11479 1966 ft 141 kts 78°
2026-05-07 20:18 49.42695 11.12578 1915 ft 137 kts
2026-05-07 20:18 49.43380 11.11874 2030 ft 128 kts 291°
2026-05-07 20:18 49.43606 11.10520 1987 ft 131 kts 284°
2026-05-07 20:19 49.43806 11.09174 2037 ft 129 kts 283°
2026-05-07 20:19 49.43985 11.07860 2143 ft 122 kts 284°
2026-05-07 20:19 49.44200 11.06600 2181 ft 123 kts 293°
2026-05-07 20:19 49.44843 11.05778 2072 ft 132 kts 347°
2026-05-07 20:20 49.45756 11.05934 2058 ft 132 kts 14°
2026-05-07 20:20 49.46620 11.06272 2146 ft 127 kts 10°
2026-05-07 20:20 49.47469 11.06665 2110 ft 132 kts 35°
2026-05-07 20:20 49.47869 11.07853 2015 ft 126 kts 83°
2026-05-07 20:21 49.47776 11.09127 2002 ft 116 kts 96°
2026-05-07 20:21 49.47701 11.10357 1881 ft 113 kts 86°
2026-05-07 20:21 49.48157 11.11127 1764 ft 107 kts
2026-05-07 20:21 49.48884 11.11106 1615 ft 94 kts 345°
2026-05-07 20:22 49.49413 11.10626 1371 ft 88 kts 311°
2026-05-07 20:22 49.49662 11.09815 1158 ft 83 kts 280°
2026-05-07 20:22 49.49748 11.09019 1038 ft 63 kts 277°
2026-05-07 20:22 49.49802 11.08469 1031 ft 49 kts 278°
2026-05-07 20:23 49.49855 11.07950 1024 ft 48 kts 281°
2026-05-07 20:23 49.49852 11.07657 1020 ft 15 kts 210°
2026-05-07 20:23 49.49756 11.07702 1020 ft 14 kts 154°
2026-05-07 20:23 49.49670 11.07767 1022 ft 13 kts 158°
2026-05-07 20:24 49.49593 11.07731 1021 ft 14 kts 247°
2026-05-07 20:24 49.49607 11.07536 1020 ft 24 kts 278°
2026-05-07 20:24 49.49635 11.07266 1019 ft 20 kts 274°
2026-05-07 20:24 49.49544 11.07194 1020 ft 16 kts 192°
2026-05-07 20:25 49.49497 11.07285 1020 ft 14 kts 70°
2026-05-07 20:25 49.49514 11.07366 1021 ft 1 kts 169°
2026-05-07 20:25 49.49509 11.07365 1021 ft 0 kts 191°